createdAt,value
2019-02-23T00:04:06.010Z,103995.57
2019-02-23T00:09:08.137Z,104001.89
2019-02-23T00:14:10.382Z,104006.49
2019-02-23T00:19:12.410Z,104010.09
2019-02-23T00:24:17.624Z,104013.09
2019-02-23T00:29:19.678Z,104015.80
2019-02-23T00:34:25.569Z,104019.08
2019-02-23T00:39:27.640Z,104022.93
2019-02-23T00:44:32.197Z,104021.52
2019-02-23T00:49:36.507Z,104020.47
2019-02-23T00:54:40.846Z,104010.06
2019-02-23T00:59:43.153Z,104004.59
2019-02-23T01:04:45.214Z,104006.44
2019-02-23T01:09:47.244Z,104009.44
2019-02-23T01:14:51.825Z,104009.94
2019-02-23T01:19:55.636Z,104016.42
2019-02-23T01:24:59.315Z,104015.73
2019-02-23T01:30:02.771Z,104001.31
2019-02-23T01:35:04.999Z,103983.13
2019-02-23T01:40:11.762Z,103983.12
2019-02-23T01:45:14.301Z,103983.60
2019-02-23T01:50:16.363Z,103991.54
2019-02-23T01:55:22.956Z,103980.38
2019-02-23T02:00:25.437Z,103979.37
2019-02-23T02:05:30.428Z,103978.56
2019-02-23T02:10:34.025Z,103967.52
2019-02-23T02:15:38.782Z,103972.28
2019-02-23T02:20:40.949Z,103970.97
2019-02-23T02:25:43.047Z,103978.23
2019-02-23T02:30:48.274Z,103975.83
2019-02-23T02:35:57.392Z,103970.62
2019-02-23T02:40:59.675Z,103970.86
2019-02-23T02:46:01.699Z,103962.56
2019-02-23T02:51:03.760Z,103962.39
2019-02-23T02:56:05.857Z,103953.74
2019-02-23T03:01:08.243Z,103956.70
2019-02-23T03:06:10.300Z,103957.83
2019-02-23T03:11:12.510Z,103957.15
2019-02-23T03:16:14.587Z,103957.83
2019-02-23T03:21:19.795Z,103947.89
2019-02-23T03:26:21.899Z,103960.55
2019-02-23T03:31:27.623Z,103962.79
2019-02-23T03:36:29.640Z,103962.77
2019-02-23T03:41:32.896Z,103957.58
2019-02-23T03:46:36.558Z,103958.75
2019-02-23T03:51:41.294Z,103955.50
2019-02-23T03:56:44.742Z,103952.97
2019-02-23T04:01:54.880Z,103952.14
2019-02-23T04:06:58.272Z,103955.02
2019-02-23T04:12:00.437Z,103952.80
2019-02-23T04:17:02.576Z,103949.80
2019-02-23T04:22:04.831Z,103952.95
2019-02-23T04:27:06.874Z,103946.79
2019-02-23T04:32:09.422Z,103962.34
2019-02-23T04:37:11.442Z,103962.37
2019-02-23T04:42:13.486Z,103965.57
2019-02-23T04:47:15.504Z,103957.80
2019-02-23T04:52:17.608Z,103965.44
2019-02-23T04:57:19.696Z,103972.28
2019-02-23T05:02:21.887Z,103968.16
2019-02-23T05:07:27.631Z,103972.94
2019-02-23T05:12:29.853Z,103971.48
2019-02-23T05:17:31.893Z,103981.31
2019-02-23T05:22:33.981Z,103978.82
2019-02-23T05:27:36.100Z,103978.17
2019-02-23T05:32:38.277Z,103984.47
2019-02-23T05:37:40.385Z,103992.55
2019-02-23T05:42:47.662Z,103993.42
2019-02-23T05:47:49.690Z,103994.53
2019-02-23T05:52:51.769Z,104002.36
2019-02-23T05:57:53.784Z,104000.25
2019-02-23T06:02:57.331Z,104001.56
2019-02-23T06:07:59.675Z,104003.95
2019-02-23T06:13:02.893Z,104001.64
2019-02-23T06:18:12.471Z,103995.03
2019-02-23T06:23:17.611Z,103991.48
2019-02-23T06:28:22.226Z,103986.67
2019-02-23T06:33:27.044Z,103989.14
2019-02-23T06:38:29.084Z,103984.80
2019-02-23T06:43:32.814Z,103990.03
2019-02-23T06:48:34.945Z,103986.36
2019-02-23T06:53:41.654Z,103988.14
2019-02-23T06:58:45.391Z,103988.94
2019-02-23T07:03:47.472Z,103996.55
2019-02-23T07:08:49.558Z,103998.71
2019-02-23T07:13:51.694Z,104006.11
2019-02-23T07:18:53.736Z,104011.81
2019-02-23T07:24:00.590Z,104011.86
2019-02-23T07:29:04.391Z,104015.98
2019-02-23T07:34:11.640Z,104026.34
2019-02-23T07:39:13.940Z,104016.05
2019-02-23T07:44:16.188Z,104019.16
2019-02-23T07:49:18.217Z,104013.64
2019-02-23T07:54:22.647Z,104009.77
2019-02-23T07:59:24.751Z,104005.81
2019-02-23T08:04:26.915Z,104006.44
2019-02-23T08:09:31.556Z,103992.92
2019-02-23T08:14:33.534Z,103988.19
2019-02-23T08:19:35.572Z,103978.75
2019-02-23T08:24:37.910Z,103978.92
2019-02-23T08:29:39.907Z,103983.93
2019-02-23T08:34:42.167Z,103976.63
2019-02-23T08:39:44.309Z,103972.61
2019-02-23T08:44:46.322Z,103971.91
2019-02-23T08:49:50.210Z,103967.92
2019-02-23T08:54:52.250Z,103970.28
2019-02-23T08:59:54.325Z,103973.42
2019-02-23T09:04:56.473Z,103981.30
2019-02-23T09:09:58.509Z,103968.54
2019-02-23T09:15:03.819Z,103975.13
2019-02-23T09:20:06.033Z,103974.46
2019-02-23T09:25:12.675Z,103966.47
2019-02-23T09:30:23.045Z,103976.47
2019-02-23T09:35:25.104Z,103980.77
2019-02-23T09:40:32.049Z,103981.88
2019-02-23T09:45:34.091Z,103983.31
2019-02-23T09:50:36.521Z,103969.17
2019-02-23T09:55:40.439Z,103974.64
2019-02-23T10:00:44.341Z,103965.13
2019-02-23T10:05:46.358Z,103958.48
2019-02-23T10:10:48.518Z,103964.87
2019-02-23T10:15:52.079Z,103961.89
2019-02-23T10:20:59.025Z,103956.73
2019-02-23T10:26:02.298Z,103966.52
2019-02-23T10:31:05.534Z,103957.84
2019-02-23T10:36:07.579Z,103957.98
2019-02-23T10:41:09.657Z,103959.36
2019-02-23T10:46:12.248Z,103960.72
2019-02-23T10:51:17.666Z,103949.28
2019-02-23T10:56:19.797Z,103954.63
2019-02-23T11:01:22.032Z,103957.70
2019-02-23T11:06:24.066Z,103959.56
2019-02-23T11:11:26.255Z,103946.64
2019-02-23T11:16:28.266Z,103940.19
2019-02-23T11:21:31.750Z,103939.91
2019-02-23T11:26:34.288Z,103935.50
2019-02-23T11:31:36.796Z,103932.75
2019-02-23T11:36:38.807Z,103920.71
2019-02-23T11:41:40.862Z,103916.40
2019-02-23T11:46:59.204Z,103925.16
2019-02-23T11:51:49.578Z,103912.02
2019-02-23T11:56:51.707Z,103916.39
2019-02-23T12:01:55.133Z,103922.09
2019-02-23T12:06:57.209Z,103905.30
2019-02-23T12:11:59.548Z,103900.69
2019-02-23T12:17:01.540Z,103894.20
2019-02-23T12:22:12.063Z,103901.45
2019-02-23T12:27:08.063Z,103893.59
2019-02-23T12:32:15.875Z,103887.27
2019-02-23T12:37:19.684Z,103881.00
2019-02-23T12:42:21.695Z,103880.04
2019-02-23T12:47:23.699Z,103877.95
2019-02-23T12:52:28.731Z,103866.40
2019-02-23T12:57:30.792Z,103861.92
2019-02-23T13:02:33.006Z,103857.41
2019-02-23T13:07:39.065Z,103852.81
2019-02-23T13:13:03.115Z,103843.33
2019-02-23T13:18:36.769Z,103834.78
2019-02-23T13:24:04.433Z,103823.87
2019-02-23T13:29:52.092Z,103823.59
2019-02-23T13:35:40.986Z,103819.17
2019-02-23T13:41:11.630Z,103824.20
2019-02-23T13:46:48.320Z,103826.20
2019-02-23T13:52:18.612Z,103830.80
2019-02-23T13:58:01.892Z,103830.33
2019-02-23T14:03:44.551Z,103829.34
2019-02-23T14:09:33.671Z,103815.31
2019-02-23T14:15:03.366Z,103810.51
2019-02-23T14:20:48.253Z,103811.11
2019-02-23T14:26:41.176Z,103809.27
2019-02-23T14:32:04.743Z,103806.50
2019-02-23T14:37:38.320Z,103808.55
2019-02-23T14:43:25.180Z,103802.66
2019-02-23T14:49:07.425Z,103794.98
2019-02-23T14:55:00.722Z,103798.02
2019-02-23T15:00:50.895Z,103795.25
2019-02-23T15:06:24.247Z,103788.94
2019-02-23T15:11:47.323Z,103794.31
2019-02-23T15:17:31.960Z,103792.24
2019-02-23T15:23:00.235Z,103781.11
2019-02-23T15:28:37.608Z,103782.66
2019-02-23T15:34:22.490Z,103782.39
2019-02-23T15:39:54.505Z,103786.94
2019-02-23T15:45:57.160Z,103786.42
2019-02-23T15:51:02.339Z,103777.34
2019-02-23T15:56:12.708Z,103777.34
2019-02-23T16:01:15.054Z,103775.99
2019-02-23T16:06:18.355Z,103775.95
2019-02-23T16:11:21.592Z,103776.81
2019-02-23T16:16:23.652Z,103779.16
2019-02-23T16:21:25.744Z,103772.97
2019-02-23T16:26:27.754Z,103777.16
2019-02-23T16:31:32.637Z,103770.66
2019-02-23T16:36:34.652Z,103777.81
2019-02-23T16:41:40.449Z,103779.39
2019-02-23T16:46:46.463Z,103771.33
2019-02-23T16:51:51.722Z,103778.30
2019-02-23T16:56:53.779Z,103784.61
2019-02-23T17:01:57.395Z,103775.11
2019-02-23T17:06:59.652Z,103777.34
2019-02-23T17:12:02.024Z,103777.55
2019-02-23T17:17:04.058Z,103773.59
2019-02-23T17:22:06.059Z,103776.69
2019-02-23T17:27:10.125Z,103772.02
2019-02-23T17:32:16.331Z,103788.46
2019-02-23T17:37:20.288Z,103776.13
2019-02-23T17:42:28.094Z,103784.62
2019-02-23T17:47:26.294Z,103779.03
2019-02-23T17:52:29.193Z,103786.91
2019-02-23T17:57:34.150Z,103789.05
2019-02-23T18:02:38.224Z,103785.45
2019-02-23T18:07:40.813Z,103784.78
2019-02-23T18:12:43.326Z,103784.59
2019-02-23T18:17:45.380Z,103776.92
2019-02-23T18:22:48.516Z,103769.17
2019-02-23T18:27:53.669Z,103772.98
2019-02-23T18:32:55.753Z,103769.28
2019-02-23T18:38:02.825Z,103767.69
2019-02-23T18:43:07.504Z,103768.30
2019-02-23T18:48:12.588Z,103778.97
2019-02-23T18:53:19.909Z,103777.10
2019-02-23T18:58:23.273Z,103787.77
2019-02-23T19:03:25.510Z,103782.71
2019-02-23T19:08:28.921Z,103775.70
2019-02-23T19:13:31.233Z,103779.88
2019-02-23T19:18:33.354Z,103781.50
2019-02-23T19:23:35.644Z,103776.39
2019-02-23T19:28:43.168Z,103788.87
2019-02-23T19:33:47.739Z,103783.41
2019-02-23T19:38:52.676Z,103783.94
2019-02-23T19:43:57.162Z,103796.63
2019-02-23T19:48:59.303Z,103795.49
2019-02-23T19:54:02.754Z,103795.06
2019-02-23T19:59:08.085Z,103800.89
2019-02-23T20:04:11.493Z,103796.67
2019-02-23T20:09:13.544Z,103794.81
2019-02-23T20:14:15.700Z,103804.95
2019-02-23T20:19:19.650Z,103803.63
2019-02-23T20:24:21.902Z,103806.98
2019-02-23T20:29:26.123Z,103813.09
2019-02-23T20:34:32.933Z,103811.27
2019-02-23T20:39:34.986Z,103815.20
2019-02-23T20:44:38.226Z,103816.88
2019-02-23T20:49:40.327Z,103821.12
2019-02-23T20:54:43.851Z,103809.13
2019-02-23T20:59:48.831Z,103804.69
2019-02-23T21:04:52.807Z,103807.30
2019-02-23T21:09:55.063Z,103816.01
2019-02-23T21:15:00.924Z,103815.08
2019-02-23T21:20:03.150Z,103821.63
2019-02-23T21:25:07.978Z,103815.35
2019-02-23T21:30:10.522Z,103808.32
2019-02-23T21:35:15.170Z,103794.91
2019-02-23T21:40:19.956Z,103793.39
2019-02-23T21:45:34.766Z,103789.60
2019-02-23T21:50:32.530Z,103794.52
2019-02-23T21:55:37.432Z,103798.88
2019-02-23T22:00:42.482Z,103805.80
2019-02-23T22:05:46.725Z,103808.48
2019-02-23T22:10:48.797Z,103804.53
2019-02-23T22:15:53.245Z,103799.23
2019-02-23T22:20:55.546Z,103801.54
2019-02-23T22:25:57.565Z,103799.45
2019-02-23T22:31:01.858Z,103799.03
2019-02-23T22:36:08.777Z,103803.07
2019-02-23T22:41:14.199Z,103809.78
2019-02-23T22:46:18.770Z,103814.50
2019-02-23T22:51:21.087Z,103810.70
2019-02-23T22:56:26.213Z,103809.87
2019-02-23T23:01:28.521Z,103809.96
2019-02-23T23:06:33.306Z,103813.41
2019-02-23T23:11:39.929Z,103807.56
2019-02-23T23:16:42.172Z,103807.28
2019-02-23T23:21:48.124Z,103805.05
2019-02-23T23:26:52.076Z,103816.39
2019-02-23T23:31:56.134Z,103811.03
2019-02-23T23:37:00.879Z,103814.61
2019-02-23T23:42:03.187Z,103815.25
2019-02-23T23:47:05.276Z,103804.84
2019-02-23T23:52:08.436Z,103808.90
2019-02-23T23:57:10.486Z,103803.48
